sensor_id;sensor_type;location;lat;lon;timestamp;pressure;altitude;pressure_sealevel;temperature;humidity
72061;BME280;59925;52.136;5.420;2022-08-30T00:00:41;102342.06;;;15.72;77.13
72061;BME280;59925;52.136;5.420;2022-08-30T00:03:26;102345.59;;;15.72;77.10
72061;BME280;59925;52.136;5.420;2022-08-30T00:05:53;102343.97;;;15.71;77.02
72061;BME280;59925;52.136;5.420;2022-08-30T00:08:21;102340.44;;;15.66;77.67
72061;BME280;59925;52.136;5.420;2022-08-30T00:10:48;102350.41;;;15.65;77.53
72061;BME280;59925;52.136;5.420;2022-08-30T00:13:17;102342.59;;;15.63;77.68
72061;BME280;59925;52.136;5.420;2022-08-30T00:15:44;102339.63;;;15.60;78.01
72061;BME280;59925;52.136;5.420;2022-08-30T00:18:11;102337.44;;;15.57;77.87
72061;BME280;59925;52.136;5.420;2022-08-30T00:20:37;102342.00;;;15.56;77.59
72061;BME280;59925;52.136;5.420;2022-08-30T00:23:04;102342.28;;;15.55;77.70
72061;BME280;59925;52.136;5.420;2022-08-30T00:25:31;102338.50;;;15.51;77.94
72061;BME280;59925;52.136;5.420;2022-08-30T00:27:57;102342.53;;;15.48;78.04
72061;BME280;59925;52.136;5.420;2022-08-30T00:30:23;102343.63;;;15.47;77.85
72061;BME280;59925;52.136;5.420;2022-08-30T00:32:50;102339.56;;;15.44;77.94
72061;BME280;59925;52.136;5.420;2022-08-30T00:35:17;102335.75;;;15.40;78.13
72061;BME280;59925;52.136;5.420;2022-08-30T00:37:46;102333.34;;;15.39;78.29
72061;BME280;59925;52.136;5.420;2022-08-30T00:40:14;102328.47;;;15.36;78.38
72061;BME280;59925;52.136;5.420;2022-08-30T00:42:43;102321.69;;;15.33;78.36
72061;BME280;59925;52.136;5.420;2022-08-30T00:45:25;102330.56;;;15.28;78.53
72061;BME280;59925;52.136;5.420;2022-08-30T00:47:52;102331.94;;;15.26;78.51
72061;BME280;59925;52.136;5.420;2022-08-30T00:50:22;102329.75;;;15.23;78.94
72061;BME280;59925;52.136;5.420;2022-08-30T00:52:51;102338.13;;;15.21;79.31
72061;BME280;59925;52.136;5.420;2022-08-30T00:55:19;102331.09;;;15.20;79.00
72061;BME280;59925;52.136;5.420;2022-08-30T00:57:47;102345.94;;;15.17;79.47
72061;BME280;59925;52.136;5.420;2022-08-30T01:00:16;102336.22;;;15.16;79.44
72061;BME280;59925;52.136;5.420;2022-08-30T01:02:43;102341.91;;;15.15;79.52
72061;BME280;59925;52.136;5.420;2022-08-30T01:05:13;102346.47;;;15.14;79.38
72061;BME280;59925;52.136;5.420;2022-08-30T01:07:42;102348.91;;;15.16;79.55
72061;BME280;59925;52.136;5.420;2022-08-30T01:10:10;102345.69;;;15.14;79.55
72061;BME280;59925;52.136;5.420;2022-08-30T01:12:37;102345.69;;;15.14;79.74
72061;BME280;59925;52.136;5.420;2022-08-30T01:15:05;102344.31;;;15.16;79.45
72061;BME280;59925;52.136;5.420;2022-08-30T01:17:33;102344.84;;;15.13;79.54
72061;BME280;59925;52.136;5.420;2022-08-30T01:20:09;102344.56;;;15.10;80.02
72061;BME280;59925;52.136;5.420;2022-08-30T01:25:17;102345.38;;;15.10;79.96
72061;BME280;59925;52.136;5.420;2022-08-30T01:28:03;102350.78;;;15.10;79.91
72061;BME280;59925;52.136;5.420;2022-08-30T01:30:31;102349.69;;;15.11;79.94
72061;BME280;59925;52.136;5.420;2022-08-30T01:33:00;102345.13;;;15.12;79.96
72061;BME280;59925;52.136;5.420;2022-08-30T01:35:32;102344.56;;;15.10;80.22
72061;BME280;59925;52.136;5.420;2022-08-30T01:38:00;102345.91;;;15.07;80.01
72061;BME280;59925;52.136;5.420;2022-08-30T01:40:27;102347.22;;;15.05;80.21
72061;BME280;59925;52.136;5.420;2022-08-30T01:42:53;102351.00;;;14.98;80.48
72061;BME280;59925;52.136;5.420;2022-08-30T01:45:20;102350.44;;;14.96;80.51
72061;BME280;59925;52.136;5.420;2022-08-30T01:47:46;102352.31;;;14.91;80.56
72061;BME280;59925;52.136;5.420;2022-08-30T01:50:13;102355.81;;;14.91;80.13
72061;BME280;59925;52.136;5.420;2022-08-30T01:52:39;102357.94;;;14.89;80.20
72061;BME280;59925;52.136;5.420;2022-08-30T01:55:06;102367.38;;;14.86;80.14
72061;BME280;59925;52.136;5.420;2022-08-30T01:57:33;102368.47;;;14.85;80.21
72061;BME280;59925;52.136;5.420;2022-08-30T01:59:59;102360.34;;;14.80;80.38
72061;BME280;59925;52.136;5.420;2022-08-30T02:02:27;102365.19;;;14.78;80.24
72061;BME280;59925;52.136;5.420;2022-08-30T02:04:55;102360.88;;;14.77;80.40
72061;BME280;59925;52.136;5.420;2022-08-30T02:07:22;102350.03;;;14.72;80.35
72061;BME280;59925;52.136;5.420;2022-08-30T02:09:49;102356.50;;;14.71;80.43
72061;BME280;59925;52.136;5.420;2022-08-30T02:12:17;102359.38;;;14.64;80.91
72061;BME280;59925;52.136;5.420;2022-08-30T02:14:44;102352.63;;;14.62;81.15
72061;BME280;59925;52.136;5.420;2022-08-30T02:17:12;102355.84;;;14.59;81.41
72061;BME280;59925;52.136;5.420;2022-08-30T02:19:39;102356.66;;;14.59;81.65
72061;BME280;59925;52.136;5.420;2022-08-30T02:22:06;102349.09;;;14.56;81.24
72061;BME280;59925;52.136;5.420;2022-08-30T02:24:33;102354.19;;;14.52;81.56
72061;BME280;59925;52.136;5.420;2022-08-30T02:26:59;102355.25;;;14.51;81.18
72061;BME280;59925;52.136;5.420;2022-08-30T02:29:26;102351.44;;;14.47;81.71
72061;BME280;59925;52.136;5.420;2022-08-30T02:31:52;102350.88;;;14.45;81.76
72061;BME280;59925;52.136;5.420;2022-08-30T02:34:18;102357.13;;;14.46;81.72
72061;BME280;59925;52.136;5.420;2022-08-30T02:36:45;102350.88;;;14.40;82.06
72061;BME280;59925;52.136;5.420;2022-08-30T02:39:13;102345.47;;;14.40;81.98
72061;BME280;59925;52.136;5.420;2022-08-30T02:41:40;102350.53;;;14.36;81.98
72061;BME280;59925;52.136;5.420;2022-08-30T02:44:07;102350.81;;;14.35;81.85
72061;BME280;59925;52.136;5.420;2022-08-30T02:46:36;102342.72;;;14.35;81.49
72061;BME280;59925;52.136;5.420;2022-08-30T02:49:03;102345.94;;;14.32;81.54
72061;BME280;59925;52.136;5.420;2022-08-30T02:51:51;102345.06;;;14.26;81.82
72061;BME280;59925;52.136;5.420;2022-08-30T02:54:17;102336.44;;;14.24;81.95
72061;BME280;59925;52.136;5.420;2022-08-30T02:56:46;102335.34;;;14.25;81.81
72061;BME280;59925;52.136;5.420;2022-08-30T02:59:15;102333.19;;;14.22;82.10
72061;BME280;59925;52.136;5.420;2022-08-30T03:01:41;102330.50;;;14.22;81.92
72061;BME280;59925;52.136;5.420;2022-08-30T03:04:08;102332.63;;;14.20;81.94
72061;BME280;59925;52.136;5.420;2022-08-30T03:06:35;102327.47;;;14.18;81.82
72061;BME280;59925;52.136;5.420;2022-08-30T03:09:01;102326.13;;;14.16;81.91
72061;BME280;59925;52.136;5.420;2022-08-30T03:11:28;102329.09;;;14.14;81.97
72061;BME280;59925;52.136;5.420;2022-08-30T03:13:55;102330.41;;;14.12;82.15
72061;BME280;59925;52.136;5.420;2022-08-30T03:16:21;102324.44;;;14.09;82.22
72061;BME280;59925;52.136;5.420;2022-08-30T03:18:48;102323.91;;;14.07;81.87
72061;BME280;59925;52.136;5.420;2022-08-30T03:21:15;102330.59;;;14.05;82.08
72061;BME280;59925;52.136;5.420;2022-08-30T03:23:42;102325.47;;;14.03;82.11
72061;BME280;59925;52.136;5.420;2022-08-30T03:26:09;102330.88;;;14.03;81.84
72061;BME280;59925;52.136;5.420;2022-08-30T03:28:38;102332.72;;;13.98;81.79
72061;BME280;59925;52.136;5.420;2022-08-30T03:31:04;102324.63;;;13.98;81.84
72061;BME280;59925;52.136;5.420;2022-08-30T03:33:31;102321.88;;;13.92;82.20
72061;BME280;59925;52.136;5.420;2022-08-30T03:35:57;102328.59;;;13.90;82.12
72061;BME280;59925;52.136;5.420;2022-08-30T03:38:24;102327.47;;;13.86;82.34
72061;BME280;59925;52.136;5.420;2022-08-30T03:40:51;102324.78;;;13.86;82.60
72061;BME280;59925;52.136;5.420;2022-08-30T03:43:17;102331.22;;;13.85;82.28
72061;BME280;59925;52.136;5.420;2022-08-30T03:45:44;102324.22;;;13.84;82.03
72061;BME280;59925;52.136;5.420;2022-08-30T03:48:11;102324.22;;;13.84;82.22
72061;BME280;59925;52.136;5.420;2022-08-30T03:50:38;102330.13;;;13.81;82.22
72061;BME280;59925;52.136;5.420;2022-08-30T03:53:05;102325.50;;;13.76;82.29
72061;BME280;59925;52.136;5.420;2022-08-30T03:55:32;102329.28;;;13.75;82.33
72061;BME280;59925;52.136;5.420;2022-08-30T03:57:58;102326.00;;;13.73;82.65
72061;BME280;59925;52.136;5.420;2022-08-30T04:00:25;102324.38;;;13.72;82.85
72061;BME280;59925;52.136;5.420;2022-08-30T04:02:51;102322.19;;;13.69;82.84
72061;BME280;59925;52.136;5.420;2022-08-30T04:05:18;102326.22;;;13.66;82.80
72061;BME280;59925;52.136;5.420;2022-08-30T04:07:45;102322.94;;;13.64;82.71
72061;BME280;59925;52.136;5.420;2022-08-30T04:10:11;102328.59;;;13.62;82.86
72061;BME280;59925;52.136;5.420;2022-08-30T04:12:38;102322.09;;;13.58;83.02
72061;BME280;59925;52.136;5.420;2022-08-30T04:15:04;102323.94;;;13.58;83.20
72061;BME280;59925;52.136;5.420;2022-08-30T04:17:31;102331.50;;;13.56;83.17
72061;BME280;59925;52.136;5.420;2022-08-30T04:19:57;102332.78;;;13.53;83.27
72061;BME280;59925;52.136;5.420;2022-08-30T04:22:24;102331.16;;;13.52;83.46
72061;BME280;59925;52.136;5.420;2022-08-30T04:24:50;102329.53;;;13.51;83.28
72061;BME280;59925;52.136;5.420;2022-08-30T04:27:17;102324.47;;;13.55;83.21
72061;BME280;59925;52.136;5.420;2022-08-30T04:29:45;102331.16;;;13.52;83.34
72061;BME280;59925;52.136;5.420;2022-08-30T04:32:13;102330.59;;;13.50;82.99
72061;BME280;59925;52.136;5.420;2022-08-30T04:34:39;102333.00;;;13.46;83.27
72061;BME280;59925;52.136;5.420;2022-08-30T04:37:06;102335.94;;;13.45;83.59
72061;BME280;59925;52.136;5.420;2022-08-30T04:39:35;102335.13;;;13.44;83.35
72061;BME280;59925;52.136;5.420;2022-08-30T04:42:01;102346.97;;;13.43;83.21
72061;BME280;59925;52.136;5.420;2022-08-30T04:44:30;102344.25;;;13.43;83.12
72061;BME280;59925;52.136;5.420;2022-08-30T04:46:57;102343.47;;;13.43;83.13
72061;BME280;59925;52.136;5.420;2022-08-30T04:49:24;102342.41;;;13.44;83.32
72061;BME280;59925;52.136;5.420;2022-08-30T04:51:50;102343.72;;;13.41;83.54
72061;BME280;59925;52.136;5.420;2022-08-30T04:54:17;102345.81;;;13.39;83.37
72061;BME280;59925;52.136;5.420;2022-08-30T04:56:43;102350.19;;;13.40;83.28
72061;BME280;59925;52.136;5.420;2022-08-30T04:59:09;102350.19;;;13.40;83.36
72061;BME280;59925;52.136;5.420;2022-08-30T05:01:36;102351.22;;;13.39;83.46
72061;BME280;59925;52.136;5.420;2022-08-30T05:04:12;102354.13;;;13.38;83.86
72061;BME280;59925;52.136;5.420;2022-08-30T05:06:39;102348.75;;;13.38;84.24
72061;BME280;59925;52.136;5.420;2022-08-30T05:09:05;102356.84;;;13.38;84.25
72061;BME280;59925;52.136;5.420;2022-08-30T05:11:32;102358.47;;;13.39;84.20
72061;BME280;59925;52.136;5.420;2022-08-30T05:13:58;102363.66;;;13.40;84.31
72061;BME280;59925;52.136;5.420;2022-08-30T05:16:25;102368.78;;;13.42;84.47
72061;BME280;59925;52.136;5.420;2022-08-30T05:18:51;102367.72;;;13.43;84.22
72061;BME280;59925;52.136;5.420;2022-08-30T05:21:21;102367.22;;;13.46;84.03
72061;BME280;59925;52.136;5.420;2022-08-30T05:23:49;102363.47;;;13.47;84.10
72061;BME280;59925;52.136;5.420;2022-08-30T05:26:27;102364.03;;;13.49;84.26
72061;BME280;59925;52.136;5.420;2022-08-30T05:28:54;102370.78;;;13.52;84.30
72061;BME280;59925;52.136;5.420;2022-08-30T05:31:27;102374.53;;;13.51;84.48
72061;BME280;59925;52.136;5.420;2022-08-30T05:33:54;102377.31;;;13.56;84.07
72061;BME280;59925;52.136;5.420;2022-08-30T05:36:23;102378.66;;;13.58;84.09
72061;BME280;59925;52.136;5.420;2022-08-30T05:38:50;102376.00;;;13.63;83.81
72061;BME280;59925;52.136;5.420;2022-08-30T05:41:19;102380.09;;;13.66;84.00
72061;BME280;59925;52.136;5.420;2022-08-30T05:43:46;102384.16;;;13.69;83.68
72061;BME280;59925;52.136;5.420;2022-08-30T05:46:14;102387.72;;;13.74;83.80
72061;BME280;59925;52.136;5.420;2022-08-30T05:48:45;102394.81;;;13.81;83.70
72061;BME280;59925;52.136;5.420;2022-08-30T05:51:14;102392.16;;;13.86;83.76
72061;BME280;59925;52.136;5.420;2022-08-30T05:53:43;102394.88;;;14.13;84.34
72061;BME280;59925;52.136;5.420;2022-08-30T05:56:14;102399.75;;;15.29;83.76
72061;BME280;59925;52.136;5.420;2022-08-30T05:58:43;102388.41;;;16.53;79.88
72061;BME280;59925;52.136;5.420;2022-08-30T06:03:50;102381.56;;;17.68;73.77
72061;BME280;59925;52.136;5.420;2022-08-30T06:06:17;102387.72;;;17.23;72.72
72061;BME280;59925;52.136;5.420;2022-08-30T06:08:44;102387.31;;;16.49;74.14
72061;BME280;59925;52.136;5.420;2022-08-30T06:11:13;102393.78;;;16.06;75.79
72061;BME280;59925;52.136;5.420;2022-08-30T06:13:40;102391.88;;;15.86;76.79
72061;BME280;59925;52.136;5.420;2022-08-30T06:16:09;102391.53;;;15.77;77.61
72061;BME280;59925;52.136;5.420;2022-08-30T06:18:36;102385.59;;;15.81;78.04
72061;BME280;59925;52.136;5.420;2022-08-30T06:21:02;102386.78;;;16.47;78.80
72061;BME280;59925;52.136;5.420;2022-08-30T06:23:29;102388.91;;;17.62;75.44
72061;BME280;59925;52.136;5.420;2022-08-30T06:25:56;102382.31;;;17.79;72.69
72061;BME280;59925;52.136;5.420;2022-08-30T06:28:28;102387.19;;;17.21;72.93
72061;BME280;59925;52.136;5.420;2022-08-30T06:30:54;102392.44;;;16.87;74.31
72061;BME280;59925;52.136;5.420;2022-08-30T06:33:21;102396.78;;;16.67;74.93
72061;BME280;59925;52.136;5.420;2022-08-30T06:35:47;102394.06;;;16.62;75.52
72061;BME280;59925;52.136;5.420;2022-08-30T06:38:25;102401.66;;;16.60;75.80
72061;BME280;59925;52.136;5.420;2022-08-30T06:40:51;102397.59;;;16.62;75.90
72061;BME280;59925;52.136;5.420;2022-08-30T06:43:19;102396.25;;;16.70;75.98
72061;BME280;59925;52.136;5.420;2022-08-30T06:45:45;102395.69;;;16.78;76.22
72061;BME280;59925;52.136;5.420;2022-08-30T06:48:12;102399.19;;;16.89;76.00
72061;BME280;59925;52.136;5.420;2022-08-30T06:50:38;102400.56;;;16.97;75.54
72061;BME280;59925;52.136;5.420;2022-08-30T06:53:08;102396.47;;;17.05;75.53
72061;BME280;59925;52.136;5.420;2022-08-30T06:55:35;102404.56;;;17.20;74.83
72061;BME280;59925;52.136;5.420;2022-08-30T06:58:02;102405.59;;;17.29;74.39
72061;BME280;59925;52.136;5.420;2022-08-30T07:00:29;102399.06;;;17.36;74.45
72061;BME280;59925;52.136;5.420;2022-08-30T07:02:56;102399.03;;;17.46;73.81
72061;BME280;59925;52.136;5.420;2022-08-30T07:05:23;102396.81;;;17.58;73.64
72061;BME280;59925;52.136;5.420;2022-08-30T07:07:50;102390.47;;;17.73;73.26
72061;BME280;59925;52.136;5.420;2022-08-30T07:10:19;102396.06;;;17.87;72.00
72061;BME280;59925;52.136;5.420;2022-08-30T07:12:47;102393.06;;;17.99;72.26
72061;BME280;59925;52.136;5.420;2022-08-30T07:15:14;102398.69;;;18.08;71.83
72061;BME280;59925;52.136;5.420;2022-08-30T07:17:41;102397.00;;;18.17;71.43
72061;BME280;59925;52.136;5.420;2022-08-30T07:20:26;102397.69;;;18.33;71.01
72061;BME280;59925;52.136;5.420;2022-08-30T07:23:05;102381.06;;;18.40;70.17
72061;BME280;59925;52.136;5.420;2022-08-30T07:25:31;102391.56;;;18.52;69.28
72061;BME280;59925;52.136;5.420;2022-08-30T07:27:58;102393.63;;;18.60;68.61
72061;BME280;59925;52.136;5.420;2022-08-30T07:30:24;102392.81;;;18.65;68.36
72061;BME280;59925;52.136;5.420;2022-08-30T07:32:51;102387.50;;;18.79;67.92
72061;BME280;59925;52.136;5.420;2022-08-30T07:35:17;102387.38;;;18.94;66.88
72061;BME280;59925;52.136;5.420;2022-08-30T07:37:44;102392.69;;;19.05;66.43
72061;BME280;59925;52.136;5.420;2022-08-30T07:40:11;102403.38;;;19.20;66.35
72061;BME280;59925;52.136;5.420;2022-08-30T07:42:37;102388.78;;;19.35;65.42
72061;BME280;59925;52.136;5.420;2022-08-30T07:45:07;102396.53;;;19.47;65.31
72061;BME280;59925;52.136;5.420;2022-08-30T07:47:33;102397.41;;;19.62;64.03
72061;BME280;59925;52.136;5.420;2022-08-30T07:50:00;102391.81;;;19.72;63.38
72061;BME280;59925;52.136;5.420;2022-08-30T07:52:26;102394.13;;;19.84;62.36
72061;BME280;59925;52.136;5.420;2022-08-30T07:54:56;102394.00;;;19.94;61.51
72061;BME280;59925;52.136;5.420;2022-08-30T07:57:24;102389.56;;;19.98;60.84
72061;BME280;59925;52.136;5.420;2022-08-30T07:59:51;102395.97;;;20.08;61.10
72061;BME280;59925;52.136;5.420;2022-08-30T08:02:18;102404.47;;;20.20;59.73
72061;BME280;59925;52.136;5.420;2022-08-30T08:04:45;102403.88;;;20.23;58.77
72061;BME280;59925;52.136;5.420;2022-08-30T08:07:13;102400.59;;;20.40;58.81
72061;BME280;59925;52.136;5.420;2022-08-30T08:09:40;102410.94;;;20.57;57.97
72061;BME280;59925;52.136;5.420;2022-08-30T08:12:07;102409.81;;;20.58;56.58
72061;BME280;59925;52.136;5.420;2022-08-30T08:14:34;102410.63;;;20.59;55.05
72061;BME280;59925;52.136;5.420;2022-08-30T08:17:01;102411.34;;;20.64;54.47
72061;BME280;59925;52.136;5.420;2022-08-30T08:19:27;102414.50;;;20.72;54.89
72061;BME280;59925;52.136;5.420;2022-08-30T08:21:53;102401.00;;;20.80;53.31
72061;BME280;59925;52.136;5.420;2022-08-30T08:24:42;102403.72;;;20.94;53.69
72061;BME280;59925;52.136;5.420;2022-08-30T08:27:08;102408.88;;;21.10;54.36
72061;BME280;59925;52.136;5.420;2022-08-30T08:29:34;102410.41;;;21.16;53.86
72061;BME280;59925;52.136;5.420;2022-08-30T08:32:01;102415.16;;;21.24;51.45
72061;BME280;59925;52.136;5.420;2022-08-30T08:34:27;102417.78;;;21.30;52.59
72061;BME280;59925;52.136;5.420;2022-08-30T08:36:54;102413.59;;;21.46;53.24
72061;BME280;59925;52.136;5.420;2022-08-30T08:39:20;102409.16;;;21.50;52.11
72061;BME280;59925;52.136;5.420;2022-08-30T08:45:13;102410.03;;;21.73;51.45
72061;BME280;59925;52.136;5.420;2022-08-30T08:50:13;102400.00;;;22.05;51.21
72061;BME280;59925;52.136;5.420;2022-08-30T08:53:11;102401.19;;;22.36;50.92
72061;BME280;59925;52.136;5.420;2022-08-30T08:56:17;102405.03;;;22.35;48.79
72061;BME280;59925;52.136;5.420;2022-08-30T08:58:47;102399.34;;;22.45;48.91
72061;BME280;59925;52.136;5.420;2022-08-30T09:01:19;102406.94;;;22.57;47.62
72061;BME280;59925;52.136;5.420;2022-08-30T09:03:47;102405.53;;;22.60;48.23
72061;BME280;59925;52.136;5.420;2022-08-30T09:06:39;102389.38;;;22.90;48.98
72061;BME280;59925;52.136;5.420;2022-08-30T09:09:11;102398.28;;;22.95;48.79
72061;BME280;59925;52.136;5.420;2022-08-30T09:11:38;102397.66;;;23.07;47.31
72061;BME280;59925;52.136;5.420;2022-08-30T09:14:12;102401.22;;;23.17;47.58
72061;BME280;59925;52.136;5.420;2022-08-30T09:16:56;102402.91;;;23.35;47.84
72061;BME280;59925;52.136;5.420;2022-08-30T09:25:06;102403.56;;;23.50;45.46
72061;BME280;59925;52.136;5.420;2022-08-30T09:27:53;102404.38;;;23.59;45.32
72061;BME280;59925;52.136;5.420;2022-08-30T09:30:26;102401.00;;;23.62;44.97
72061;BME280;59925;52.136;5.420;2022-08-30T09:32:54;102397.63;;;23.74;44.23
72061;BME280;59925;52.136;5.420;2022-08-30T09:35:25;102393.94;;;23.96;45.43
72061;BME280;59925;52.136;5.420;2022-08-30T09:38:05;102400.38;;;24.09;44.26
72061;BME280;59925;52.136;5.420;2022-08-30T09:40:38;102396.34;;;24.07;43.66
72061;BME280;59925;52.136;5.420;2022-08-30T09:43:33;102399.88;;;24.16;43.75
72061;BME280;59925;52.136;5.420;2022-08-30T09:53:59;102407.75;;;24.26;44.38
72061;BME280;59925;52.136;5.420;2022-08-30T09:57:08;102404.00;;;24.48;42.62
72061;BME280;59925;52.136;5.420;2022-08-30T10:05:24;102409.09;;;24.76;41.75
72061;BME280;59925;52.136;5.420;2022-08-30T10:10:50;102395.00;;;25.17;41.82
72061;BME280;59925;52.136;5.420;2022-08-30T10:21:58;102393.81;;;25.90;40.79
72061;BME280;59925;52.136;5.420;2022-08-30T10:24:43;102393.28;;;25.76;41.21
72061;BME280;59925;52.136;5.420;2022-08-30T10:27:25;102392.47;;;25.96;41.93
72061;BME280;59925;52.136;5.420;2022-08-30T10:30:05;102396.56;;;26.11;41.31
72061;BME280;59925;52.136;5.420;2022-08-30T10:33:15;102389.66;;;26.05;40.59
72061;BME280;59925;52.136;5.420;2022-08-30T10:35:49;102392.69;;;26.25;40.23
72061;BME280;59925;52.136;5.420;2022-08-30T10:38:38;102398.94;;;26.46;39.99
72061;BME280;59925;52.136;5.420;2022-08-30T10:41:28;102385.78;;;26.52;37.91
72061;BME280;59925;52.136;5.420;2022-08-30T10:44:14;102391.38;;;26.43;38.16
72061;BME280;59925;52.136;5.420;2022-08-30T10:49:25;102399.94;;;26.54;37.58
72061;BME280;59925;52.136;5.420;2022-08-30T10:52:15;102383.97;;;26.81;38.45
72061;BME280;59925;52.136;5.420;2022-08-30T10:55:04;102387.03;;;27.04;36.75
72061;BME280;59925;52.136;5.420;2022-08-30T10:57:31;102387.97;;;27.08;36.96
72061;BME280;59925;52.136;5.420;2022-08-30T11:00:05;102392.09;;;27.02;37.20
72061;BME280;59925;52.136;5.420;2022-08-30T11:05:54;102384.03;;;27.22;37.35
72061;BME280;59925;52.136;5.420;2022-08-30T11:08:44;102377.94;;;27.29;35.92
72061;BME280;59925;52.136;5.420;2022-08-30T11:14:08;102376.56;;;27.22;37.19
72061;BME280;59925;52.136;5.420;2022-08-30T11:16:39;102370.44;;;27.42;36.10
72061;BME280;59925;52.136;5.420;2022-08-30T11:19:27;102378.63;;;27.79;36.39
72061;BME280;59925;52.136;5.420;2022-08-30T11:22:15;102381.16;;;27.72;34.54
72061;BME280;59925;52.136;5.420;2022-08-30T11:33:04;102370.09;;;28.28;34.97
72061;BME280;59925;52.136;5.420;2022-08-30T11:35:49;102374.78;;;28.28;34.63
72061;BME280;59925;52.136;5.420;2022-08-30T11:46:21;102360.91;;;28.40;33.87
72061;BME280;59925;52.136;5.420;2022-08-30T11:49:29;102361.06;;;28.96;34.32
72061;BME280;59925;52.136;5.420;2022-08-30T11:52:33;102369.56;;;29.06;33.71
72061;BME280;59925;52.136;5.420;2022-08-30T12:00:40;102348.09;;;28.80;33.92
72061;BME280;59925;52.136;5.420;2022-08-30T12:08:08;102348.22;;;29.03;33.29
72061;BME280;59925;52.136;5.420;2022-08-30T12:10:42;102342.47;;;29.12;33.30
72061;BME280;59925;52.136;5.420;2022-08-30T12:13:12;102348.00;;;29.12;32.49
72061;BME280;59925;52.136;5.420;2022-08-30T12:16:05;102339.44;;;29.17;32.08
72061;BME280;59925;52.136;5.420;2022-08-30T12:31:42;102324.50;;;30.01;32.76
72061;BME280;59925;52.136;5.420;2022-08-30T12:34:18;102319.94;;;30.12;32.24
72061;BME280;59925;52.136;5.420;2022-08-30T12:36:53;102325.56;;;30.16;31.55
72061;BME280;59925;52.136;5.420;2022-08-30T12:39:24;102317.50;;;30.07;31.95
72061;BME280;59925;52.136;5.420;2022-08-30T12:41:52;102318.22;;;30.04;30.35
72061;BME280;59925;52.136;5.420;2022-08-30T12:44:25;102313.31;;;30.17;30.72
72061;BME280;59925;52.136;5.420;2022-08-30T12:46:56;102320.06;;;30.19;30.72
72061;BME280;59925;52.136;5.420;2022-08-30T12:49:27;102325.31;;;30.01;31.61
72061;BME280;59925;52.136;5.420;2022-08-30T12:51:55;102316.69;;;29.83;32.34
72061;BME280;59925;52.136;5.420;2022-08-30T12:54:41;102319.53;;;29.67;33.76
72061;BME280;59925;52.136;5.420;2022-08-30T12:57:07;102310.38;;;29.63;33.08
72061;BME280;59925;52.136;5.420;2022-08-30T12:59:54;102319.84;;;29.42;33.34
72061;BME280;59925;52.136;5.420;2022-08-30T13:02:41;102310.69;;;29.58;33.04
72061;BME280;59925;52.136;5.420;2022-08-30T13:13:50;102302.84;;;29.40;33.09
72061;BME280;59925;52.136;5.420;2022-08-30T13:19:24;102297.25;;;29.79;32.94
72061;BME280;59925;52.136;5.420;2022-08-30T13:21:49;102292.31;;;29.69;32.38
72061;BME280;59925;52.136;5.420;2022-08-30T13:24:16;102287.25;;;29.71;32.41
72061;BME280;59925;52.136;5.420;2022-08-30T13:26:42;102284.94;;;29.54;32.82
72061;BME280;59925;52.136;5.420;2022-08-30T13:29:20;102287.25;;;29.51;32.53
72061;BME280;59925;52.136;5.420;2022-08-30T13:31:47;102294.09;;;29.38;32.09
72061;BME280;59925;52.136;5.420;2022-08-30T13:34:14;102287.81;;;29.38;32.27
72061;BME280;59925;52.136;5.420;2022-08-30T13:36:46;102287.94;;;29.45;32.54
72061;BME280;59925;52.136;5.420;2022-08-30T13:39:13;102285.03;;;29.57;31.63
72061;BME280;59925;52.136;5.420;2022-08-30T13:41:39;102286.09;;;29.52;32.76
72061;BME280;59925;52.136;5.420;2022-08-30T13:44:06;102288.13;;;29.56;32.76
72061;BME280;59925;52.136;5.420;2022-08-30T13:46:39;102277.97;;;29.60;32.16
72061;BME280;59925;52.136;5.420;2022-08-30T13:49:14;102279.31;;;29.70;32.11
72061;BME280;59925;52.136;5.420;2022-08-30T13:52:03;102276.31;;;29.35;31.11
72061;BME280;59925;52.136;5.420;2022-08-30T13:54:45;102273.75;;;29.46;32.17
72061;BME280;59925;52.136;5.420;2022-08-30T13:57:16;102280.34;;;29.61;31.77
72061;BME280;59925;52.136;5.420;2022-08-30T14:00:05;102273.44;;;29.51;32.38
72061;BME280;59925;52.136;5.420;2022-08-30T14:02:33;102272.88;;;29.42;31.00
72061;BME280;59925;52.136;5.420;2022-08-30T14:05:11;102276.53;;;29.46;32.43
72061;BME280;59925;52.136;5.420;2022-08-30T14:07:58;102276.56;;;29.70;32.91
72061;BME280;59925;52.136;5.420;2022-08-30T14:10:27;102271.47;;;29.95;31.68
72061;BME280;59925;52.136;5.420;2022-08-30T14:12:56;102279.41;;;29.96;31.80
72061;BME280;59925;52.136;5.420;2022-08-30T14:15:33;102273.69;;;29.86;32.36
72061;BME280;59925;52.136;5.420;2022-08-30T14:18:05;102275.38;;;29.94;31.26
72061;BME280;59925;52.136;5.420;2022-08-30T14:20:32;102268.81;;;29.79;31.75
72061;BME280;59925;52.136;5.420;2022-08-30T14:23:04;102272.28;;;29.52;31.00
72061;BME280;59925;52.136;5.420;2022-08-30T14:25:35;102267.81;;;29.05;31.78
72061;BME280;59925;52.136;5.420;2022-08-30T14:28:02;102264.91;;;29.17;31.13
72061;BME280;59925;52.136;5.420;2022-08-30T14:30:28;102270.63;;;29.28;31.63
72061;BME280;59925;52.136;5.420;2022-08-30T14:32:55;102265.94;;;29.09;31.84
72061;BME280;59925;52.136;5.420;2022-08-30T14:35:21;102269.81;;;28.88;32.12
72061;BME280;59925;52.136;5.420;2022-08-30T14:37:49;102256.75;;;29.05;31.91
72061;BME280;59925;52.136;5.420;2022-08-30T14:40:17;102263.72;;;28.79;32.30
72061;BME280;59925;52.136;5.420;2022-08-30T14:42:43;102266.28;;;28.72;32.17
72061;BME280;59925;52.136;5.420;2022-08-30T14:45:10;102256.75;;;28.85;31.51
72061;BME280;59925;52.136;5.420;2022-08-30T14:47:37;102265.88;;;28.70;32.51
72061;BME280;59925;52.136;5.420;2022-08-30T14:50:04;102265.28;;;28.44;32.46